Conger, Minnesota
Current Conditions -  °F | °C
As of 9:51 AM on Saturday 20 Dec 2014 (Local Time) from KAEL Reporting Station
Haze Haze  
Wind Chill: 23°   Ceiling: 300
Heat Index: 30°   Visibility: 1.2mi
Dew Point: 30°   Wind: 7mph
Humidity: 100%   Direction: 170°S
Pressure: 30.14"   Gusts: NA
Location:  43.61°N, 93.53°W
Report Text: KAEL 201551Z AUTO 17006KT 1 1/4SM BR OVC003 M01/M01 A3014 RMK AO2
Loading
Personal Weather Stations






























Interactive Weather Map New forecast layout! Learn more

10-Day Weather Forecast

Advertisements
Track Severe Weather on mobile